ESOK Airport Information

Runway Information
Runway 03 Length 8255 ft width 148 ft
Elevation 332 ft Threshold 0 ft Heading 26
Runway 21 Length 8255 ft Width 148 ft
Elevation 352 ft Threshold 0 ft Heading 206
Runway 03L Length 1840 ft width 170 ft
Elevation 0 ft Threshold 0 ft Heading 26
Runway 21R Length 1840 ft Width 170 ft
Elevation 0 ft Threshold 0 ft Heading 206
Airport Frequencies
Type TWR Name TWR Frequency 119.45 MHZ
Airport Navaids
Type VOR-DME Name Karlstad Frequency 117800 KHZ
Airport Weather Information & NOTAM
ADDS - METARS form results

(2207 UTC 18 December 2018)
Data provider http://aviationweather.gov/metar/data/
 
METAR text: ESOK 182150Z AUTO 07006KT 9999 OVC023/// M04/M04 Q1023
Conditions at: ESOK (KARLSTAD NORTH , SE) observed 2150 UTC 18 December 2018
Temperature: -4.0°C (25°F)
Dewpoint: -4.0°C (25°F) [RH = 100%]
Pressure (altimeter): 30.21 inches Hg (1023.0 mb)
Winds: from the ENE (70 degrees) at 7 MPH (6 knots; 3.1 m/s)
Visibility: 6 or more miles (10+ km)
Ceiling: 2300 feet AGL
Clouds: overcast cloud deck at 2300 feet AGL
Weather: no significant weather observed at this time

METAR text: ESOK 182120Z AUTO 04005KT 9000 OVC025/// M04/M04 Q1023
Conditions at: ESOK (KARLSTAD NORTH , SE) observed 2120 UTC 18 December 2018
Temperature: -4.0°C (25°F)
Dewpoint: -4.0°C (25°F) [RH = 100%]
Pressure (altimeter): 30.21 inches Hg (1023.0 mb)
Winds: from the NE (40 degrees) at 6 MPH (5 knots; 2.6 m/s)
Visibility: 6 miles ( 9 km)
Ceiling: 2500 feet AGL
Clouds: overcast cloud deck at 2500 feet AGL
Weather: no significant weather observed at this time

Forecast for: ESOK (KARLSTAD NORTH , SE)
Text: TAF ESOK 181730Z 1818/1822 04003KT 5000 BCFG NSC
Forecast period: 1800 to 2200 UTC 18 December 2018
Forecast type: FROM: standard forecast or significant change
Winds: from the NE (40 degrees) at 3 MPH (3 knots; 1.5 m/s)
Visibility: 3 miles (5 km)
Ceiling: unknown
Clouds: missing
Weather: BCFG  (patches of fog)
Text: PROB40 1818/1822 0500 FZFG VV002
Forecast period: 1800 to 2200 UTC 18 December 2018
Forecast type: PROBABLE: 40 percent likelihood of the following during this time
Visibility: 0.31 miles (0.50 km)
Ceiling: indefinite ceiling with vertical visibility of 200 feet AGL
Clouds: obscured sky
Weather: FZFG  (freezing fog)